METAR de aeropuertos de Murcia y cercanos

 

LEAL - Alicante
Actualización: 19/10/2017 23:30
Despejado
Despejado
 Viento del O
Viento: O 17 km/h
Temperatura: 18°C
Rocío: 8°C
Humedad: 52%
Barómetro: 1013 hPa
Resumen: Despejado
Visibilidad: greater than 10 km
2017/10/19 21:30 LEAL 192130Z 27009KT CAVOK 18/08 Q1013 NOSIG
LEAB - Albacete
Actualización: 19/10/2017 23:00
Despejado
Despejado
 Viento del O
Viento: O 11 km/h
Temperatura: 10°C
Wind Chill: 8°C
Rocío: 6°C
Humedad: 76%
Barómetro: 1017 hPa
Resumen: Despejado
Visibilidad: greater than 10 km
2017/10/19 21:00 LEAB 192100Z 28006KT CAVOK 10/06 Q1017 NOSIG
LEAM - Almería
Actualización: 19/10/2017 23:30
Despejado
Despejado
 Viento del NNO
Viento: NNO 26 km/h
Temperatura: 21°C
Rocío: 8°C
Humedad: 43%
Barómetro: 1014 hPa
Nubosidad: Despejado
Visibilidad: 10 km
2017/10/19 21:30 LEAM 192130Z AUTO 34014KT 9999 NCD 21/08 Q1014
 
LERI - Murcia/Alcantarilla
Actualización: 19/10/2017 20:00
NO Actualizado
Few Clouds
Few Clouds
 Viento del varies
Viento: varies 4 km/h
Temperatura: 20°C
Rocío: 7°C
Humedad: 43%
Barómetro: 1012 hPa
Nubosidad: Few Clouds
Visibilidad: 10 km
Cloud details: Few Clouds 1829 m
2017/10/19 18:00 LERI 191800Z VRB02KT 9999 FEW060 20/07 Q1012 NOSIG
LELC - Murcia/San Javier
Actualización: 19/10/2017 23:00
Despejado
Despejado
 Viento del O
Viento: O 6 km/h
Temperatura: 18°C
Rocío: 11°C
Humedad: 64%
Barómetro: 1014 hPa
Resumen: Despejado
Visibilidad: greater than 10 km
2017/10/19 21:00 LELC 192100Z 26003KT CAVOK 18/11 Q1014 NOSIG

La estación de MeteoMurcia.com, publica sus datos en los siguientes proyectos:

Meteoclimatic www.awekas.at

W3Counter
Web Analytics